sensor_id;sensor_type;location;lat;lon;timestamp;P1;durP1;ratioP1;P2;durP2;ratioP2
11970;SDS011;6045;42.682;23.294;2022-12-29T00:00:53;15.63;;;8.73;;
11970;SDS011;6045;42.682;23.294;2022-12-29T00:03:20;16.50;;;9.97;;
11970;SDS011;6045;42.682;23.294;2022-12-29T00:05:53;16.97;;;8.87;;
11970;SDS011;6045;42.682;23.294;2022-12-29T00:08:20;13.03;;;8.73;;
11970;SDS011;6045;42.682;23.294;2022-12-29T00:11:05;16.80;;;9.53;;
11970;SDS011;6045;42.682;23.294;2022-12-29T00:13:32;17.77;;;10.20;;
11970;SDS011;6045;42.682;23.294;2022-12-29T00:16:17;18.73;;;8.20;;
11970;SDS011;6045;42.682;23.294;2022-12-29T00:18:43;14.07;;;9.40;;
11970;SDS011;6045;42.682;23.294;2022-12-29T00:21:12;20.30;;;9.33;;
11970;SDS011;6045;42.682;23.294;2022-12-29T00:24:06;17.67;;;9.53;;
11970;SDS011;6045;42.682;23.294;2022-12-29T00:26:55;14.23;;;8.70;;
11970;SDS011;6045;42.682;23.294;2022-12-29T00:29:42;19.50;;;10.13;;
11970;SDS011;6045;42.682;23.294;2022-12-29T00:32:26;18.37;;;11.60;;
11970;SDS011;6045;42.682;23.294;2022-12-29T00:35:22;14.00;;;9.27;;
11970;SDS011;6045;42.682;23.294;2022-12-29T00:37:51;21.20;;;11.07;;
11970;SDS011;6045;42.682;23.294;2022-12-29T00:40:42;14.17;;;9.00;;
11970;SDS011;6045;42.682;23.294;2022-12-29T00:43:28;15.97;;;9.63;;
11970;SDS011;6045;42.682;23.294;2022-12-29T00:46:12;14.37;;;8.87;;
11970;SDS011;6045;42.682;23.294;2022-12-29T00:48:39;17.63;;;9.17;;
11970;SDS011;6045;42.682;23.294;2022-12-29T00:51:23;17.40;;;9.83;;
11970;SDS011;6045;42.682;23.294;2022-12-29T00:53:50;12.37;;;9.17;;
11970;SDS011;6045;42.682;23.294;2022-12-29T00:56:16;19.50;;;11.03;;
11970;SDS011;6045;42.682;23.294;2022-12-29T00:58:45;14.87;;;9.40;;
11970;SDS011;6045;42.682;23.294;2022-12-29T01:01:11;14.17;;;9.40;;
11970;SDS011;6045;42.682;23.294;2022-12-29T01:03:38;13.03;;;8.20;;
11970;SDS011;6045;42.682;23.294;2022-12-29T01:06:06;17.27;;;9.33;;
11970;SDS011;6045;42.682;23.294;2022-12-29T01:08:34;17.53;;;8.73;;
11970;SDS011;6045;42.682;23.294;2022-12-29T01:11:02;12.87;;;9.27;;
11970;SDS011;6045;42.682;23.294;2022-12-29T01:13:30;13.83;;;9.00;;
11970;SDS011;6045;42.682;23.294;2022-12-29T01:15:58;20.77;;;10.23;;
11970;SDS011;6045;42.682;23.294;2022-12-29T01:18:25;16.47;;;9.30;;
11970;SDS011;6045;42.682;23.294;2022-12-29T01:20:57;19.77;;;11.67;;
11970;SDS011;6045;42.682;23.294;2022-12-29T01:23:25;16.97;;;9.50;;
11970;SDS011;6045;42.682;23.294;2022-12-29T01:25:52;17.30;;;10.47;;
11970;SDS011;6045;42.682;23.294;2022-12-29T01:28:19;16.27;;;9.13;;
11970;SDS011;6045;42.682;23.294;2022-12-29T01:30:46;13.83;;;7.93;;
11970;SDS011;6045;42.682;23.294;2022-12-29T01:33:14;14.40;;;9.40;;
11970;SDS011;6045;42.682;23.294;2022-12-29T01:35:41;13.60;;;8.20;;
11970;SDS011;6045;42.682;23.294;2022-12-29T01:38:07;13.20;;;7.70;;
11970;SDS011;6045;42.682;23.294;2022-12-29T01:40:42;13.23;;;7.87;;
11970;SDS011;6045;42.682;23.294;2022-12-29T01:43:10;12.30;;;7.73;;
11970;SDS011;6045;42.682;23.294;2022-12-29T01:45:40;10.13;;;6.93;;
11970;SDS011;6045;42.682;23.294;2022-12-29T01:48:10;8.60;;;6.23;;
11970;SDS011;6045;42.682;23.294;2022-12-29T01:50:39;8.80;;;6.13;;
11970;SDS011;6045;42.682;23.294;2022-12-29T01:53:11;9.83;;;6.60;;
11970;SDS011;6045;42.682;23.294;2022-12-29T01:55:43;11.53;;;6.40;;
11970;SDS011;6045;42.682;23.294;2022-12-29T01:58:12;6.97;;;5.47;;
11970;SDS011;6045;42.682;23.294;2022-12-29T02:00:41;11.77;;;6.70;;
11970;SDS011;6045;42.682;23.294;2022-12-29T02:03:08;7.40;;;5.60;;
11970;SDS011;6045;42.682;23.294;2022-12-29T02:05:37;9.83;;;6.03;;
11970;SDS011;6045;42.682;23.294;2022-12-29T02:08:09;12.00;;;6.07;;
11970;SDS011;6045;42.682;23.294;2022-12-29T02:10:38;10.10;;;5.60;;
11970;SDS011;6045;42.682;23.294;2022-12-29T02:13:06;11.63;;;6.50;;
11970;SDS011;6045;42.682;23.294;2022-12-29T02:15:35;9.93;;;6.23;;
11970;SDS011;6045;42.682;23.294;2022-12-29T02:21:18;10.50;;;5.93;;
11970;SDS011;6045;42.682;23.294;2022-12-29T02:24:05;7.00;;;5.33;;
11970;SDS011;6045;42.682;23.294;2022-12-29T02:29:53;7.47;;;4.47;;
11970;SDS011;6045;42.682;23.294;2022-12-29T02:32:32;10.80;;;6.47;;
11970;SDS011;6045;42.682;23.294;2022-12-29T02:35:07;9.13;;;6.37;;
11970;SDS011;6045;42.682;23.294;2022-12-29T02:37:41;5.03;;;4.43;;
11970;SDS011;6045;42.682;23.294;2022-12-29T02:40:17;12.30;;;7.00;;
11970;SDS011;6045;42.682;23.294;2022-12-29T02:42:51;7.10;;;6.43;;
11970;SDS011;6045;42.682;23.294;2022-12-29T02:45:26;8.13;;;5.63;;
11970;SDS011;6045;42.682;23.294;2022-12-29T02:48:01;8.40;;;5.37;;
11970;SDS011;6045;42.682;23.294;2022-12-29T02:50:33;9.57;;;5.60;;
11970;SDS011;6045;42.682;23.294;2022-12-29T02:53:04;8.13;;;5.37;;
11970;SDS011;6045;42.682;23.294;2022-12-29T02:55:34;8.20;;;5.20;;
11970;SDS011;6045;42.682;23.294;2022-12-29T02:58:16;5.00;;;3.80;;
11970;SDS011;6045;42.682;23.294;2022-12-29T03:00:48;9.40;;;6.40;;
11970;SDS011;6045;42.682;23.294;2022-12-29T03:03:27;9.23;;;5.50;;
11970;SDS011;6045;42.682;23.294;2022-12-29T03:06:11;5.73;;;4.00;;
11970;SDS011;6045;42.682;23.294;2022-12-29T03:08:51;7.43;;;5.17;;
11970;SDS011;6045;42.682;23.294;2022-12-29T03:11:26;13.33;;;5.23;;
11970;SDS011;6045;42.682;23.294;2022-12-29T03:14:21;7.60;;;5.47;;
11970;SDS011;6045;42.682;23.294;2022-12-29T03:17:14;7.80;;;5.53;;
11970;SDS011;6045;42.682;23.294;2022-12-29T03:19:51;8.83;;;5.87;;
11970;SDS011;6045;42.682;23.294;2022-12-29T03:22:26;14.37;;;5.97;;
11970;SDS011;6045;42.682;23.294;2022-12-29T03:24:59;7.00;;;4.20;;
11970;SDS011;6045;42.682;23.294;2022-12-29T03:27:31;5.67;;;5.00;;
11970;SDS011;6045;42.682;23.294;2022-12-29T03:30:02;8.27;;;5.00;;
11970;SDS011;6045;42.682;23.294;2022-12-29T03:32:32;6.93;;;5.13;;
11970;SDS011;6045;42.682;23.294;2022-12-29T03:35:04;8.87;;;6.27;;
11970;SDS011;6045;42.682;23.294;2022-12-29T03:37:35;10.53;;;5.83;;
11970;SDS011;6045;42.682;23.294;2022-12-29T03:40:07;8.77;;;5.13;;
11970;SDS011;6045;42.682;23.294;2022-12-29T03:42:35;9.07;;;5.77;;
11970;SDS011;6045;42.682;23.294;2022-12-29T03:45:04;13.53;;;6.83;;
11970;SDS011;6045;42.682;23.294;2022-12-29T03:47:32;14.83;;;6.53;;
11970;SDS011;6045;42.682;23.294;2022-12-29T03:49:59;13.70;;;6.77;;
11970;SDS011;6045;42.682;23.294;2022-12-29T03:52:27;7.70;;;6.07;;
11970;SDS011;6045;42.682;23.294;2022-12-29T03:54:54;12.83;;;6.83;;
11970;SDS011;6045;42.682;23.294;2022-12-29T03:57:21;12.30;;;7.47;;
11970;SDS011;6045;42.682;23.294;2022-12-29T03:59:48;9.67;;;5.40;;
11970;SDS011;6045;42.682;23.294;2022-12-29T04:02:14;7.53;;;5.90;;
11970;SDS011;6045;42.682;23.294;2022-12-29T04:04:41;8.67;;;5.93;;
11970;SDS011;6045;42.682;23.294;2022-12-29T04:07:08;9.83;;;6.93;;
11970;SDS011;6045;42.682;23.294;2022-12-29T04:09:36;12.87;;;7.00;;
11970;SDS011;6045;42.682;23.294;2022-12-29T04:12:03;11.67;;;6.50;;
11970;SDS011;6045;42.682;23.294;2022-12-29T04:14:30;11.40;;;8.03;;
11970;SDS011;6045;42.682;23.294;2022-12-29T04:16:56;9.13;;;7.20;;
11970;SDS011;6045;42.682;23.294;2022-12-29T04:19:23;9.23;;;7.20;;
11970;SDS011;6045;42.682;23.294;2022-12-29T04:21:50;8.63;;;5.10;;
11970;SDS011;6045;42.682;23.294;2022-12-29T04:24:17;9.00;;;6.03;;
11970;SDS011;6045;42.682;23.294;2022-12-29T04:26:45;9.37;;;4.90;;
11970;SDS011;6045;42.682;23.294;2022-12-29T04:29:12;8.80;;;6.93;;
11970;SDS011;6045;42.682;23.294;2022-12-29T04:35:13;10.97;;;6.30;;
11970;SDS011;6045;42.682;23.294;2022-12-29T04:37:39;4.93;;;4.43;;
11970;SDS011;6045;42.682;23.294;2022-12-29T04:40:07;8.20;;;5.13;;
11970;SDS011;6045;42.682;23.294;2022-12-29T04:42:36;6.80;;;5.47;;
11970;SDS011;6045;42.682;23.294;2022-12-29T04:45:03;5.27;;;4.77;;
11970;SDS011;6045;42.682;23.294;2022-12-29T04:47:30;5.43;;;4.93;;
11970;SDS011;6045;42.682;23.294;2022-12-29T04:49:56;8.37;;;5.77;;
11970;SDS011;6045;42.682;23.294;2022-12-29T04:52:23;8.30;;;4.63;;
11970;SDS011;6045;42.682;23.294;2022-12-29T04:54:50;8.83;;;5.93;;
11970;SDS011;6045;42.682;23.294;2022-12-29T04:57:17;8.23;;;4.30;;
11970;SDS011;6045;42.682;23.294;2022-12-29T04:59:45;7.53;;;4.87;;
11970;SDS011;6045;42.682;23.294;2022-12-29T05:02:11;11.17;;;4.23;;
11970;SDS011;6045;42.682;23.294;2022-12-29T05:04:38;12.47;;;6.00;;
11970;SDS011;6045;42.682;23.294;2022-12-29T05:07:05;11.33;;;5.77;;
11970;SDS011;6045;42.682;23.294;2022-12-29T05:09:32;6.30;;;4.83;;
11970;SDS011;6045;42.682;23.294;2022-12-29T05:11:59;6.90;;;4.97;;
11970;SDS011;6045;42.682;23.294;2022-12-29T05:14:25;7.13;;;6.03;;
11970;SDS011;6045;42.682;23.294;2022-12-29T05:16:54;8.03;;;3.73;;
11970;SDS011;6045;42.682;23.294;2022-12-29T05:19:20;6.50;;;4.90;;
11970;SDS011;6045;42.682;23.294;2022-12-29T05:21:47;5.77;;;5.00;;
11970;SDS011;6045;42.682;23.294;2022-12-29T05:24:14;10.27;;;4.80;;
11970;SDS011;6045;42.682;23.294;2022-12-29T05:26:41;9.70;;;5.10;;
11970;SDS011;6045;42.682;23.294;2022-12-29T05:29:08;11.37;;;5.10;;
11970;SDS011;6045;42.682;23.294;2022-12-29T05:31:35;8.77;;;4.73;;
11970;SDS011;6045;42.682;23.294;2022-12-29T05:34:03;10.13;;;6.00;;
11970;SDS011;6045;42.682;23.294;2022-12-29T05:36:29;8.93;;;5.47;;
11970;SDS011;6045;42.682;23.294;2022-12-29T05:38:56;14.43;;;6.70;;
11970;SDS011;6045;42.682;23.294;2022-12-29T05:41:23;10.43;;;7.37;;
11970;SDS011;6045;42.682;23.294;2022-12-29T05:43:50;6.87;;;4.77;;
11970;SDS011;6045;42.682;23.294;2022-12-29T05:46:17;13.10;;;7.23;;
11970;SDS011;6045;42.682;23.294;2022-12-29T05:48:44;13.73;;;5.77;;
11970;SDS011;6045;42.682;23.294;2022-12-29T05:51:12;7.80;;;4.93;;
11970;SDS011;6045;42.682;23.294;2022-12-29T05:53:39;10.90;;;6.87;;
11970;SDS011;6045;42.682;23.294;2022-12-29T05:56:06;12.53;;;6.93;;
11970;SDS011;6045;42.682;23.294;2022-12-29T05:58:33;11.37;;;8.73;;
11970;SDS011;6045;42.682;23.294;2022-12-29T06:01:00;17.67;;;9.13;;
11970;SDS011;6045;42.682;23.294;2022-12-29T06:03:26;13.70;;;8.27;;
11970;SDS011;6045;42.682;23.294;2022-12-29T06:05:53;15.33;;;7.60;;
11970;SDS011;6045;42.682;23.294;2022-12-29T06:08:21;12.00;;;6.03;;
11970;SDS011;6045;42.682;23.294;2022-12-29T06:10:49;11.67;;;7.37;;
11970;SDS011;6045;42.682;23.294;2022-12-29T06:13:16;12.67;;;8.63;;
11970;SDS011;6045;42.682;23.294;2022-12-29T06:15:43;9.43;;;6.60;;
11970;SDS011;6045;42.682;23.294;2022-12-29T06:18:10;12.17;;;6.80;;
11970;SDS011;6045;42.682;23.294;2022-12-29T06:20:37;15.07;;;9.00;;
11970;SDS011;6045;42.682;23.294;2022-12-29T06:23:03;17.63;;;10.07;;
11970;SDS011;6045;42.682;23.294;2022-12-29T06:25:32;12.13;;;7.77;;
11970;SDS011;6045;42.682;23.294;2022-12-29T06:27:59;16.70;;;10.33;;
11970;SDS011;6045;42.682;23.294;2022-12-29T06:30:26;14.67;;;7.77;;
11970;SDS011;6045;42.682;23.294;2022-12-29T06:32:52;15.23;;;8.80;;
11970;SDS011;6045;42.682;23.294;2022-12-29T06:35:20;12.00;;;9.50;;
11970;SDS011;6045;42.682;23.294;2022-12-29T06:37:47;11.40;;;6.70;;
11970;SDS011;6045;42.682;23.294;2022-12-29T06:40:14;12.63;;;8.07;;
11970;SDS011;6045;42.682;23.294;2022-12-29T06:42:42;13.33;;;9.00;;
11970;SDS011;6045;42.682;23.294;2022-12-29T06:45:09;9.53;;;7.20;;
11970;SDS011;6045;42.682;23.294;2022-12-29T06:47:36;17.17;;;9.37;;
11970;SDS011;6045;42.682;23.294;2022-12-29T06:50:03;11.97;;;7.03;;
11970;SDS011;6045;42.682;23.294;2022-12-29T06:52:31;15.97;;;9.87;;
11970;SDS011;6045;42.682;23.294;2022-12-29T06:54:58;13.73;;;10.30;;
11970;SDS011;6045;42.682;23.294;2022-12-29T06:57:25;18.90;;;12.00;;
11970;SDS011;6045;42.682;23.294;2022-12-29T06:59:53;17.33;;;12.37;;
11970;SDS011;6045;42.682;23.294;2022-12-29T07:02:21;18.70;;;12.77;;
11970;SDS011;6045;42.682;23.294;2022-12-29T07:04:50;15.90;;;10.57;;
11970;SDS011;6045;42.682;23.294;2022-12-29T07:07:17;19.20;;;10.70;;
11970;SDS011;6045;42.682;23.294;2022-12-29T07:09:54;17.17;;;9.93;;
11970;SDS011;6045;42.682;23.294;2022-12-29T07:12:23;19.27;;;11.20;;
11970;SDS011;6045;42.682;23.294;2022-12-29T07:14:54;15.17;;;9.77;;
11970;SDS011;6045;42.682;23.294;2022-12-29T07:17:21;10.93;;;7.80;;
11970;SDS011;6045;42.682;23.294;2022-12-29T07:19:54;12.90;;;7.87;;
11970;SDS011;6045;42.682;23.294;2022-12-29T07:22:20;10.37;;;6.47;;
11970;SDS011;6045;42.682;23.294;2022-12-29T07:24:56;11.83;;;7.20;;
11970;SDS011;6045;42.682;23.294;2022-12-29T07:27:23;9.00;;;6.73;;
11970;SDS011;6045;42.682;23.294;2022-12-29T07:29:49;13.00;;;6.87;;
11970;SDS011;6045;42.682;23.294;2022-12-29T07:32:18;12.40;;;7.00;;
11970;SDS011;6045;42.682;23.294;2022-12-29T07:34:45;11.43;;;7.20;;
11970;SDS011;6045;42.682;23.294;2022-12-29T07:37:12;9.60;;;7.60;;
11970;SDS011;6045;42.682;23.294;2022-12-29T07:39:39;10.93;;;8.00;;
11970;SDS011;6045;42.682;23.294;2022-12-29T07:42:06;11.75;;;8.52;;
11970;SDS011;6045;42.682;23.294;2022-12-29T07:44:33;9.88;;;8.48;;
11970;SDS011;6045;42.682;23.294;2022-12-29T07:47:01;12.32;;;8.05;;
11970;SDS011;6045;42.682;23.294;2022-12-29T07:49:29;12.00;;;8.00;;
11970;SDS011;6045;42.682;23.294;2022-12-29T07:51:56;12.00;;;8.23;;
11970;SDS011;6045;42.682;23.294;2022-12-29T07:54:23;16.65;;;8.48;;
11970;SDS011;6045;42.682;23.294;2022-12-29T07:56:50;12.70;;;8.38;;
11970;SDS011;6045;42.682;23.294;2022-12-29T07:59:17;13.35;;;8.80;;
11970;SDS011;6045;42.682;23.294;2022-12-29T08:01:44;12.43;;;8.40;;
11970;SDS011;6045;42.682;23.294;2022-12-29T08:04:11;11.45;;;7.97;;
11970;SDS011;6045;42.682;23.294;2022-12-29T08:06:39;13.88;;;8.30;;
11970;SDS011;6045;42.682;23.294;2022-12-29T08:09:42;14.70;;;9.45;;
11970;SDS011;6045;42.682;23.294;2022-12-29T08:12:05;13.85;;;7.97;;
11970;SDS011;6045;42.682;23.294;2022-12-29T08:14:32;9.27;;;6.88;;
11970;SDS011;6045;42.682;23.294;2022-12-29T08:16:59;13.25;;;7.60;;
11970;SDS011;6045;42.682;23.294;2022-12-29T08:19:26;13.25;;;7.97;;
11970;SDS011;6045;42.682;23.294;2022-12-29T08:21:54;14.20;;;8.43;;
11970;SDS011;6045;42.682;23.294;2022-12-29T08:24:21;11.38;;;7.70;;
11970;SDS011;6045;42.682;23.294;2022-12-29T08:26:47;10.48;;;7.15;;
11970;SDS011;6045;42.682;23.294;2022-12-29T08:29:14;12.63;;;8.10;;
11970;SDS011;6045;42.682;23.294;2022-12-29T08:31:41;12.38;;;8.70;;
11970;SDS011;6045;42.682;23.294;2022-12-29T08:34:08;12.05;;;8.50;;
11970;SDS011;6045;42.682;23.294;2022-12-29T08:36:35;12.25;;;8.32;;
11970;SDS011;6045;42.682;23.294;2022-12-29T08:39:04;14.45;;;10.25;;
11970;SDS011;6045;42.682;23.294;2022-12-29T08:41:31;13.48;;;9.05;;
11970;SDS011;6045;42.682;23.294;2022-12-29T08:43:58;12.75;;;9.23;;
11970;SDS011;6045;42.682;23.294;2022-12-29T08:46:24;11.60;;;8.77;;
11970;SDS011;6045;42.682;23.294;2022-12-29T08:48:51;15.55;;;9.88;;
11970;SDS011;6045;42.682;23.294;2022-12-29T08:51:19;14.68;;;9.68;;
11970;SDS011;6045;42.682;23.294;2022-12-29T08:53:46;13.43;;;9.27;;
11970;SDS011;6045;42.682;23.294;2022-12-29T08:56:14;13.57;;;9.48;;
11970;SDS011;6045;42.682;23.294;2022-12-29T08:58:42;15.35;;;9.82;;
11970;SDS011;6045;42.682;23.294;2022-12-29T09:01:09;17.63;;;11.80;;
11970;SDS011;6045;42.682;23.294;2022-12-29T09:03:38;15.45;;;10.18;;
11970;SDS011;6045;42.682;23.294;2022-12-29T09:06:06;17.25;;;11.35;;
11970;SDS011;6045;42.682;23.294;2022-12-29T09:08:33;15.15;;;11.18;;
11970;SDS011;6045;42.682;23.294;2022-12-29T09:11:07;18.48;;;10.63;;
11970;SDS011;6045;42.682;23.294;2022-12-29T09:13:36;20.20;;;12.50;;
11970;SDS011;6045;42.682;23.294;2022-12-29T09:16:03;18.08;;;12.15;;
11970;SDS011;6045;42.682;23.294;2022-12-29T09:18:30;15.95;;;11.23;;
11970;SDS011;6045;42.682;23.294;2022-12-29T09:20:57;16.30;;;11.23;;
11970;SDS011;6045;42.682;23.294;2022-12-29T09:23:24;15.95;;;12.00;;
11970;SDS011;6045;42.682;23.294;2022-12-29T09:25:51;15.60;;;10.50;;
11970;SDS011;6045;42.682;23.294;2022-12-29T09:28:18;18.45;;;11.05;;
11970;SDS011;6045;42.682;23.294;2022-12-29T09:30:47;17.70;;;11.07;;
11970;SDS011;6045;42.682;23.294;2022-12-29T09:33:14;15.27;;;10.95;;
11970;SDS011;6045;42.682;23.294;2022-12-29T09:35:42;16.58;;;10.05;;
11970;SDS011;6045;42.682;23.294;2022-12-29T09:38:09;18.35;;;11.02;;
11970;SDS011;6045;42.682;23.294;2022-12-29T09:40:37;20.38;;;10.90;;
11970;SDS011;6045;42.682;23.294;2022-12-29T09:43:10;13.00;;;9.90;;
11970;SDS011;6045;42.682;23.294;2022-12-29T09:45:53;18.15;;;9.85;;
11970;SDS011;6045;42.682;23.294;2022-12-29T09:48:27;14.48;;;9.43;;
11970;SDS011;6045;42.682;23.294;2022-12-29T09:50:59;14.50;;;9.43;;
11970;SDS011;6045;42.682;23.294;2022-12-29T09:53:30;16.80;;;10.13;;
11970;SDS011;6045;42.682;23.294;2022-12-29T09:56:02;19.60;;;9.93;;
11970;SDS011;6045;42.682;23.294;2022-12-29T09:58:34;13.68;;;8.75;;
11970;SDS011;6045;42.682;23.294;2022-12-29T10:01:07;15.95;;;9.68;;
11970;SDS011;6045;42.682;23.294;2022-12-29T10:03:44;13.10;;;9.23;;
11970;SDS011;6045;42.682;23.294;2022-12-29T10:06:15;14.38;;;8.43;;
11970;SDS011;6045;42.682;23.294;2022-12-29T10:08:49;13.93;;;10.20;;
11970;SDS011;6045;42.682;23.294;2022-12-29T10:11:26;16.17;;;9.60;;
11970;SDS011;6045;42.682;23.294;2022-12-29T10:14:06;14.65;;;9.73;;
11970;SDS011;6045;42.682;23.294;2022-12-29T10:16:46;12.10;;;8.13;;
11970;SDS011;6045;42.682;23.294;2022-12-29T10:19:26;11.82;;;8.48;;
11970;SDS011;6045;42.682;23.294;2022-12-29T10:22:04;12.57;;;9.32;;
11970;SDS011;6045;42.682;23.294;2022-12-29T10:24:39;14.98;;;8.90;;
11970;SDS011;6045;42.682;23.294;2022-12-29T10:27:09;14.52;;;9.30;;
11970;SDS011;6045;42.682;23.294;2022-12-29T10:29:39;16.67;;;9.82;;
11970;SDS011;6045;42.682;23.294;2022-12-29T10:32:16;11.43;;;8.90;;
11970;SDS011;6045;42.682;23.294;2022-12-29T10:34:50;13.60;;;8.82;;
11970;SDS011;6045;42.682;23.294;2022-12-29T10:37:29;12.45;;;9.20;;
11970;SDS011;6045;42.682;23.294;2022-12-29T10:40:01;14.75;;;9.10;;
11970;SDS011;6045;42.682;23.294;2022-12-29T10:42:39;15.00;;;10.18;;
11970;SDS011;6045;42.682;23.294;2022-12-29T10:45:11;14.43;;;9.43;;
11970;SDS011;6045;42.682;23.294;2022-12-29T10:47:46;10.23;;;8.93;;
11970;SDS011;6045;42.682;23.294;2022-12-29T10:50:18;13.35;;;8.77;;
11970;SDS011;6045;42.682;23.294;2022-12-29T10:52:45;13.88;;;9.10;;
11970;SDS011;6045;42.682;23.294;2022-12-29T10:55:15;13.02;;;8.73;;
11970;SDS011;6045;42.682;23.294;2022-12-29T10:57:45;12.00;;;8.70;;
11970;SDS011;6045;42.682;23.294;2022-12-29T11:00:18;15.20;;;9.38;;
11970;SDS011;6045;42.682;23.294;2022-12-29T11:02:50;12.98;;;8.35;;
11970;SDS011;6045;42.682;23.294;2022-12-29T11:05:32;12.27;;;7.85;;
11970;SDS011;6045;42.682;23.294;2022-12-29T11:08:03;11.55;;;8.57;;
11970;SDS011;6045;42.682;23.294;2022-12-29T11:10:36;15.85;;;9.45;;
11970;SDS011;6045;42.682;23.294;2022-12-29T11:13:10;13.00;;;9.00;;
11970;SDS011;6045;42.682;23.294;2022-12-29T11:15:39;14.30;;;9.15;;
11970;SDS011;6045;42.682;23.294;2022-12-29T11:20:53;12.15;;;7.80;;
11970;SDS011;6045;42.682;23.294;2022-12-29T11:23:25;15.65;;;8.10;;
11970;SDS011;6045;42.682;23.294;2022-12-29T11:26:07;11.77;;;8.38;;
11970;SDS011;6045;42.682;23.294;2022-12-29T11:28:40;11.63;;;8.25;;
11970;SDS011;6045;42.682;23.294;2022-12-29T11:31:09;11.63;;;8.32;;
11970;SDS011;6045;42.682;23.294;2022-12-29T11:33:38;12.40;;;8.25;;
11970;SDS011;6045;42.682;23.294;2022-12-29T11:36:06;15.80;;;9.68;;
11970;SDS011;6045;42.682;23.294;2022-12-29T11:38:39;11.45;;;8.60;;
11970;SDS011;6045;42.682;23.294;2022-12-29T11:41:10;11.05;;;8.00;;
11970;SDS011;6045;42.682;23.294;2022-12-29T11:43:40;12.88;;;8.18;;
11970;SDS011;6045;42.682;23.294;2022-12-29T11:46:12;12.02;;;7.80;;
11970;SDS011;6045;42.682;23.294;2022-12-29T11:48:43;12.10;;;8.07;;
11970;SDS011;6045;42.682;23.294;2022-12-29T11:51:21;12.25;;;8.25;;
11970;SDS011;6045;42.682;23.294;2022-12-29T11:53:50;10.65;;;7.55;;
11970;SDS011;6045;42.682;23.294;2022-12-29T11:56:20;11.98;;;7.88;;
11970;SDS011;6045;42.682;23.294;2022-12-29T11:58:57;11.13;;;8.88;;
11970;SDS011;6045;42.682;23.294;2022-12-29T12:01:25;13.27;;;9.00;;
11970;SDS011;6045;42.682;23.294;2022-12-29T12:04:02;14.40;;;9.18;;
11970;SDS011;6045;42.682;23.294;2022-12-29T12:06:33;14.80;;;9.30;;
11970;SDS011;6045;42.682;23.294;2022-12-29T12:09:13;13.65;;;8.75;;
11970;SDS011;6045;42.682;23.294;2022-12-29T12:11:47;12.27;;;8.77;;
11970;SDS011;6045;42.682;23.294;2022-12-29T12:14:20;16.05;;;9.32;;
11970;SDS011;6045;42.682;23.294;2022-12-29T12:16:53;13.73;;;8.27;;
11970;SDS011;6045;42.682;23.294;2022-12-29T12:19:26;12.52;;;8.07;;
11970;SDS011;6045;42.682;23.294;2022-12-29T12:22:02;14.30;;;8.63;;
11970;SDS011;6045;42.682;23.294;2022-12-29T12:24:36;12.80;;;7.45;;
11970;SDS011;6045;42.682;23.294;2022-12-29T12:27:10;10.30;;;7.55;;
11970;SDS011;6045;42.682;23.294;2022-12-29T12:29:46;14.07;;;8.18;;
11970;SDS011;6045;42.682;23.294;2022-12-29T12:32:19;13.60;;;6.78;;
11970;SDS011;6045;42.682;23.294;2022-12-29T12:34:51;13.13;;;8.48;;
11970;SDS011;6045;42.682;23.294;2022-12-29T12:40:30;12.52;;;6.63;;
11970;SDS011;6045;42.682;23.294;2022-12-29T12:43:14;12.25;;;7.63;;
11970;SDS011;6045;42.682;23.294;2022-12-29T12:45:59;11.63;;;7.38;;
11970;SDS011;6045;42.682;23.294;2022-12-29T12:48:39;11.45;;;7.15;;
11970;SDS011;6045;42.682;23.294;2022-12-29T12:51:18;13.18;;;7.05;;
11970;SDS011;6045;42.682;23.294;2022-12-29T12:53:56;11.30;;;8.30;;
11970;SDS011;6045;42.682;23.294;2022-12-29T12:56:44;11.30;;;7.60;;
11970;SDS011;6045;42.682;23.294;2022-12-29T12:59:23;12.68;;;7.18;;
11970;SDS011;6045;42.682;23.294;2022-12-29T13:02:02;9.98;;;6.57;;
11970;SDS011;6045;42.682;23.294;2022-12-29T13:04:47;11.00;;;7.03;;
11970;SDS011;6045;42.682;23.294;2022-12-29T13:07:27;9.23;;;6.18;;
11970;SDS011;6045;42.682;23.294;2022-12-29T13:10:12;11.65;;;6.50;;
11970;SDS011;6045;42.682;23.294;2022-12-29T13:12:54;13.10;;;8.52;;
11970;SDS011;6045;42.682;23.294;2022-12-29T13:15:32;11.55;;;7.07;;
11970;SDS011;6045;42.682;23.294;2022-12-29T13:18:11;9.77;;;7.47;;
11970;SDS011;6045;42.682;23.294;2022-12-29T13:20:49;9.77;;;6.57;;
11970;SDS011;6045;42.682;23.294;2022-12-29T13:23:23;13.82;;;7.95;;
11970;SDS011;6045;42.682;23.294;2022-12-29T13:25:58;11.35;;;7.22;;
11970;SDS011;6045;42.682;23.294;2022-12-29T13:28:31;9.07;;;6.97;;
11970;SDS011;6045;42.682;23.294;2022-12-29T13:31:04;10.15;;;7.50;;
11970;SDS011;6045;42.682;23.294;2022-12-29T13:33:40;8.98;;;7.72;;
11970;SDS011;6045;42.682;23.294;2022-12-29T13:36:17;13.30;;;8.20;;
11970;SDS011;6045;42.682;23.294;2022-12-29T13:38:51;13.43;;;8.50;;
11970;SDS011;6045;42.682;23.294;2022-12-29T13:41:29;11.88;;;7.47;;
11970;SDS011;6045;42.682;23.294;2022-12-29T13:44:00;14.25;;;7.95;;
11970;SDS011;6045;42.682;23.294;2022-12-29T13:46:31;11.18;;;7.63;;
11970;SDS011;6045;42.682;23.294;2022-12-29T13:49:04;15.38;;;8.45;;
11970;SDS011;6045;42.682;23.294;2022-12-29T13:51:33;14.98;;;8.40;;
11970;SDS011;6045;42.682;23.294;2022-12-29T13:54:05;10.35;;;7.70;;
11970;SDS011;6045;42.682;23.294;2022-12-29T13:56:42;10.07;;;7.13;;
11970;SDS011;6045;42.682;23.294;2022-12-29T13:59:17;11.17;;;6.63;;
11970;SDS011;6045;42.682;23.294;2022-12-29T14:02:08;12.20;;;7.40;;
11970;SDS011;6045;42.682;23.294;2022-12-29T14:04:54;11.70;;;7.33;;
11970;SDS011;6045;42.682;23.294;2022-12-29T14:07:26;10.20;;;6.90;;
11970;SDS011;6045;42.682;23.294;2022-12-29T14:10:18;12.27;;;7.10;;
11970;SDS011;6045;42.682;23.294;2022-12-29T14:12:59;12.83;;;7.47;;
11970;SDS011;6045;42.682;23.294;2022-12-29T14:15:29;11.97;;;7.07;;
11970;SDS011;6045;42.682;23.294;2022-12-29T14:18:01;15.57;;;7.70;;
11970;SDS011;6045;42.682;23.294;2022-12-29T14:20:38;11.60;;;6.93;;
11970;SDS011;6045;42.682;23.294;2022-12-29T14:23:16;15.90;;;8.13;;
11970;SDS011;6045;42.682;23.294;2022-12-29T14:25:59;13.53;;;8.63;;
11970;SDS011;6045;42.682;23.294;2022-12-29T14:28:36;19.20;;;8.83;;
11970;SDS011;6045;42.682;23.294;2022-12-29T14:31:04;15.90;;;8.40;;
11970;SDS011;6045;42.682;23.294;2022-12-29T14:36:57;11.47;;;7.63;;
11970;SDS011;6045;42.682;23.294;2022-12-29T14:39:36;14.73;;;7.23;;
11970;SDS011;6045;42.682;23.294;2022-12-29T14:42:06;15.27;;;8.73;;
11970;SDS011;6045;42.682;23.294;2022-12-29T14:44:46;11.73;;;6.83;;
11970;SDS011;6045;42.682;23.294;2022-12-29T14:47:16;13.37;;;7.67;;
11970;SDS011;6045;42.682;23.294;2022-12-29T14:49:46;9.80;;;6.67;;
11970;SDS011;6045;42.682;23.294;2022-12-29T14:52:14;9.07;;;6.93;;
11970;SDS011;6045;42.682;23.294;2022-12-29T14:54:50;12.40;;;7.43;;
11970;SDS011;6045;42.682;23.294;2022-12-29T14:57:24;13.47;;;7.70;;
11970;SDS011;6045;42.682;23.294;2022-12-29T14:59:55;14.00;;;8.07;;
11970;SDS011;6045;42.682;23.294;2022-12-29T15:02:31;10.83;;;6.93;;
11970;SDS011;6045;42.682;23.294;2022-12-29T15:05:03;13.60;;;8.20;;
11970;SDS011;6045;42.682;23.294;2022-12-29T15:07:32;11.83;;;6.53;;
11970;SDS011;6045;42.682;23.294;2022-12-29T15:10:03;14.43;;;8.23;;
11970;SDS011;6045;42.682;23.294;2022-12-29T15:12:37;12.33;;;8.37;;
11970;SDS011;6045;42.682;23.294;2022-12-29T15:15:17;13.17;;;7.60;;
11970;SDS011;6045;42.682;23.294;2022-12-29T15:17:46;14.37;;;8.20;;
11970;SDS011;6045;42.682;23.294;2022-12-29T15:20:20;14.83;;;8.20;;